Airfield :
LOGIN :

Register | Disclaimer

   EN    FR    IT 

 










Legend :    VFR   Marginal VFR   IFR   Intensive IFR   Very Intensive IFR
Visi :
Ceiling :
>= 8 km
>= 3000ft
5 to 8 km
1000 to 3000 ft
1500m to 5 km
500 to 1000 ft
800 to 1500m
200 to 500 ft
< 800m
< 200 ft
Symbols :   Thunderstorms  Fog  Heavy snow  Heavy precipitations  Wind > 20 kt
SIGMETs :     Misc.  Thunderstorms  Icing  Turbulence  Mountain Waves  Volcanic Ashes







- Airport Elevation : 22 ft
- IATA code : LDY
- Download approach charts


EGAE - Londonderry Eglington

CURRENT METAR :
  • 171520Z 21010KT 170V230 9999 -SHRA SCT021 BKN034 18/14 Q1003

EXPIRED METARs :
  • 171450Z 20010KT 150V220 9999 FEW020 BKN032 19/14 Q1003
  • 171420Z 20011KT 170V230 9999 FEW023 SCT028 20/14 Q1002
  • 171350Z 22013KT 190V250 9999 FEW023 SCT028 20/14 Q1003
  • 171320Z 22014KT 9999 FEW023 SCT028 18/13 Q1003
  • 171250Z 23011KT 9999 VCSH FEW017 SCT024 18/15 Q1003
  • 171220Z 22011KT 190V250 8000 VCSH FEW017 BKN024 19/14 Q1002

TAF TAF EGAE
Valid from the 17 at 15:00 until the 17 at 20:00 UTC


171357Z 1715/1720 21013KT 9999 FEW014 SCT028
PROB40
TEMPO 1715/1720 7000 SHRA
No reported NOTAMs for that airfield.



MET'MAP, your aeronautical weather chart ! - Copyright ORBIFLY December 2007 - Disclaimer

ORBIFLY MET'MAP TEAM :

Programming & Development : Alexandra Zaïnal
Concept & Development : Baudouin d'Aumeries
Co-Development & Prog : Marc-Olivier Méhu
Technical & hardware support : Manuel Goepfert

Contact : metmap@orbifly.com




SOURCES & CREDITS :

   NOAA